Time;durP1;ratioP1;P1;durP2;ratioP2;P2;SDS_P1;SDS_P2;PMS_P1;PMS_P2;Temp;Humidity;BMP_temperature;BMP_pressure;BME280_temperature;BME280_humidity;BME280_pressure;Samples;Min_cycle;Max_cycle;Signal;HPM_P1;HPM_P2
2022/06/21 00:00:50;;;;;;;6.43;2.88;;;11.50;99.90;;;;;;5009633;28;20030;-60
2022/06/21 00:03:23;;;;;;;8.20;2.72;;;11.50;99.90;;;;;;5008047;28;20081;-62
2022/06/21 00:05:51;;;;;;;9.27;2.70;;;11.60;99.90;;;;;;5009773;28;20033;-61
2022/06/21 00:08:21;;;;;;;14.18;3.30;;;11.60;99.90;;;;;;5023047;28;20080;-60
2022/06/21 00:10:47;;;;;;;6.03;2.45;;;11.60;99.90;;;;;;5009350;28;20057;-56
2022/06/21 00:13:22;;;;;;;7.10;2.95;;;11.60;99.90;;;;;;5009383;28;20041;-61
2022/06/21 00:15:54;;;;;;;12.02;2.67;;;11.60;99.90;;;;;;5008627;28;20041;-61
2022/06/21 00:18:23;;;;;;;8.93;2.75;;;11.50;99.90;;;;;;5007824;28;20054;-61
2022/06/21 00:20:49;;;;;;;16.05;3.08;;;11.50;99.90;;;;;;5009996;28;20045;-60
2022/06/21 00:23:24;;;;;;;8.93;3.67;;;11.50;99.90;;;;;;5009491;28;20033;-60
2022/06/21 00:25:50;;;;;;;12.02;4.03;;;11.40;99.90;;;;;;5009325;28;20030;-60
2022/06/21 00:28:18;;;;;;;9.23;3.38;;;11.30;99.90;;;;;;5008108;28;20037;-61
2022/06/21 00:30:46;;;;;;;15.95;3.70;;;11.30;99.90;;;;;;5009572;28;20046;-61
2022/06/21 00:33:14;;;;;;;12.23;3.55;;;11.30;99.90;;;;;;5009502;28;20064;-60
2022/06/21 00:35:42;;;;;;;9.18;2.85;;;11.30;99.90;;;;;;5007858;28;20049;-60
2022/06/21 00:38:30;;;;;;;12.65;3.15;;;11.10;99.90;;;;;;5009596;28;20474;-60
2022/06/21 00:40:57;;;;;;;12.05;3.67;;;11.10;99.90;;;;;;5009409;28;20021;-59
2022/06/21 00:43:27;;;;;;;10.27;3.67;;;10.90;99.90;;;;;;5007764;28;20108;-61
2022/06/21 00:45:53;;;;;;;8.25;3.22;;;10.80;99.90;;;;;;5003132;28;20488;-60
2022/06/21 00:48:19;;;;;;;10.23;3.50;;;10.70;99.90;;;;;;5007688;28;20042;-60
2022/06/21 00:50:48;;;;;;;11.80;3.05;;;10.70;99.90;;;;;;5009167;28;20049;-60
2022/06/21 00:53:20;;;;;;;10.68;2.83;;;10.70;99.90;;;;;;5009712;28;20116;-60
2022/06/21 00:55:57;;;;;;;10.77;3.10;;;10.60;99.90;;;;;;5007610;28;20196;-60
2022/06/21 00:58:30;;;;;;;9.48;3.83;;;10.60;99.90;;;;;;5007558;28;20080;-60
2022/06/21 01:01:07;;;;;;;9.35;2.95;;;10.60;99.90;;;;;;5009383;28;20026;-60
2022/06/21 01:03:40;;;;;;;8.38;3.60;;;10.50;99.90;;;;;;5001295;28;20044;-59
2022/06/21 01:06:14;;;;;;;9.02;4.10;;;10.60;99.90;;;;;;5010179;28;20115;-60
2022/06/21 01:08:43;;;;;;;11.27;3.85;;;10.60;99.90;;;;;;5011410;28;20045;-60
2022/06/21 01:11:19;;;;;;;9.45;3.25;;;10.70;99.90;;;;;;5011806;28;20080;-58
2022/06/21 01:13:49;;;;;;;9.27;3.25;;;10.70;99.90;;;;;;5012795;28;20053;-59
2022/06/21 01:16:16;;;;;;;8.43;3.10;;;10.70;99.90;;;;;;5012412;28;20026;-61
2022/06/21 01:18:43;;;;;;;17.05;3.63;;;10.70;99.90;;;;;;5012686;28;20033;-61
2022/06/21 01:21:11;;;;;;;9.82;2.95;;;10.60;99.90;;;;;;5012466;28;20591;-61
2022/06/21 01:23:59;;;;;;;15.23;4.60;;;10.70;99.90;;;;;;5010368;28;20057;-61
2022/06/21 01:26:46;;;;;;;12.15;3.47;;;10.80;99.90;;;;;;5004752;28;20060;-60
2022/06/21 01:29:18;;;;;;;8.23;3.78;;;10.80;99.90;;;;;;5012579;28;20509;-60
2022/06/21 01:31:44;;;;;;;;;;;10.80;99.90;;;;;;5012980;28;20477;-61
2022/06/21 01:34:16;;;;;;;11.32;4.25;;;10.80;99.90;;;;;;5012290;28;20008;-61
2022/06/21 01:36:44;;;;;;;8.82;3.20;;;10.80;99.90;;;;;;5007628;28;20025;-61
2022/06/21 01:39:17;;;;;;;10.73;3.63;;;10.80;99.90;;;;;;5012607;28;20022;-61
2022/06/21 01:41:58;;;;;;;9.23;3.25;;;10.90;99.90;;;;;;5011795;28;20026;-61
2022/06/21 01:44:32;;;;;;;12.05;4.13;;;10.90;99.90;;;;;;5010803;28;20026;-61
2022/06/21 01:47:02;;;;;;;7.18;3.20;;;10.90;99.90;;;;;;5011913;28;20052;-61
2022/06/21 01:49:31;;;;;;;12.13;3.75;;;10.90;99.90;;;;;;5010148;28;20037;-61
2022/06/21 01:52:01;;;;;;;9.60;3.88;;;10.80;99.90;;;;;;5011819;28;20042;-60
2022/06/21 01:54:33;;;;;;;8.70;3.25;;;10.80;99.90;;;;;;5010408;28;20037;-60
2022/06/21 01:56:59;;;;;;;9.63;3.28;;;10.60;99.90;;;;;;5011922;28;20030;-60
2022/06/21 01:59:30;;;;;;;8.55;3.33;;;10.60;99.90;;;;;;5010176;28;20052;-60
2022/06/21 02:02:02;;;;;;;11.30;3.35;;;10.80;99.90;;;;;;5011961;28;20030;-60
2022/06/21 02:04:31;;;;;;;;;;;10.90;99.90;;;;;;5009996;28;20413;-62
2022/06/21 02:07:03;;;;;;;10.32;3.45;;;10.80;99.90;;;;;;5011805;28;19909;-61
2022/06/21 02:09:36;;;;;;;;;;;10.80;99.90;;;;;;5010376;28;20026;-61
2022/06/21 02:12:05;;;;;;;10.05;4.03;;;10.80;99.90;;;;;;5011315;28;20407;-61
2022/06/21 02:14:37;;;;;;;14.60;4.97;;;10.70;99.90;;;;;;5009874;28;20030;-61
2022/06/21 02:17:11;;;;;;;8.20;3.78;;;10.70;99.90;;;;;;5010120;28;20501;-61
2022/06/21 02:19:39;;;;;;;13.10;4.03;;;10.70;99.90;;;;;;5003205;28;20034;-61
2022/06/21 02:22:10;;;;;;;9.90;3.28;;;10.60;99.90;;;;;;5011737;28;20053;-61
2022/06/21 02:24:35;;;;;;;11.40;4.63;;;10.60;99.90;;;;;;5009882;28;20088;-61
2022/06/21 02:27:02;;;;;;;9.40;3.70;;;10.50;99.90;;;;;;5010570;28;20026;-61
2022/06/21 02:29:30;;;;;;;10.38;3.70;;;10.40;99.90;;;;;;5009313;28;20554;-60
2022/06/21 02:31:57;;;;;;;7.85;3.60;;;10.40;99.90;;;;;;5010978;28;20041;-64
2022/06/21 02:34:37;;;;;;;9.30;3.60;;;10.40;99.90;;;;;;5009069;28;20029;-61
2022/06/21 02:37:05;;;;;;;13.55;3.60;;;10.30;99.90;;;;;;5011109;28;20029;-60
2022/06/21 02:39:33;;;;;;;11.15;3.92;;;10.40;99.90;;;;;;5009394;28;20093;-60
2022/06/21 02:42:15;;;;;;;10.73;4.10;;;10.40;99.90;;;;;;5007762;28;20041;-61
2022/06/21 02:44:46;;;;;;;6.93;3.50;;;10.30;99.90;;;;;;5009518;28;20030;-60
2022/06/21 02:47:20;;;;;;;9.60;3.90;;;10.20;99.90;;;;;;5008725;28;20068;-61
2022/06/21 02:49:53;;;;;;;9.77;3.83;;;10.20;99.90;;;;;;5005090;28;20026;-60
2022/06/21 02:52:25;;;;;;;7.03;3.30;;;10.20;99.90;;;;;;5006848;28;20100;-65
2022/06/21 02:55:05;;;;;;;10.48;4.18;;;10.10;99.90;;;;;;5010572;28;20026;-61
2022/06/21 02:57:37;;;;;;;8.90;3.28;;;10.00;99.90;;;;;;4999895;28;20040;-61
2022/06/21 03:00:06;;;;;;;10.80;3.42;;;10.00;99.90;;;;;;5010509;28;20072;-61
2022/06/21 03:02:35;;;;;;;6.70;2.97;;;10.00;99.90;;;;;;5008589;28;20054;-61
2022/06/21 03:05:07;;;;;;;12.88;4.22;;;10.00;99.90;;;;;;5010483;28;20030;-61
2022/06/21 03:07:38;;;;;;;13.00;3.28;;;10.00;99.90;;;;;;5009093;28;20478;-61
2022/06/21 03:10:09;;;;;;;9.75;4.22;;;10.00;99.90;;;;;;5009575;28;20049;-61
2022/06/21 03:12:35;;;;;;;11.70;3.60;;;10.00;99.90;;;;;;4999511;28;20042;-61
2022/06/21 03:15:13;;;;;;;9.82;3.25;;;10.00;99.90;;;;;;5010157;28;20113;-61
2022/06/21 03:17:45;;;;;;;6.82;3.00;;;9.90;99.90;;;;;;5000540;28;20092;-61
2022/06/21 03:20:14;;;;;;;10.60;3.47;;;9.90;99.90;;;;;;5010286;28;20084;-61
2022/06/21 03:22:41;;;;;;;9.02;3.50;;;9.90;99.90;;;;;;5005620;28;20113;-61
2022/06/21 03:25:16;;;;;;;6.82;3.75;;;9.90;99.90;;;;;;5004177;28;20030;-61
2022/06/21 03:27:53;;;;;;;12.30;4.10;;;9.80;99.90;;;;;;5005812;28;20382;-60
2022/06/21 03:30:22;;;;;;;14.18;3.22;;;9.80;99.90;;;;;;5008134;28;20059;-62
2022/06/21 03:32:51;;;;;;;12.70;3.63;;;9.80;99.90;;;;;;5010296;28;20080;-60
2022/06/21 03:35:17;;;;;;;12.68;4.00;;;9.80;99.90;;;;;;5010059;28;20034;-59
2022/06/21 03:37:45;;;;;;;14.73;3.53;;;9.80;99.90;;;;;;5009430;28;20112;-60
2022/06/21 03:43:11;;;;;;;8.68;3.55;;;9.70;99.90;;;;;;5008510;28;20533;-59
2022/06/21 03:45:40;;;;;;;8.20;3.88;;;9.80;99.90;;;;;;5006943;28;20614;-61
2022/06/21 03:48:17;;;;;;;7.50;3.95;;;9.70;99.90;;;;;;5009918;28;20124;-59
2022/06/21 03:50:55;;;;;;;6.15;3.40;;;9.70;99.90;;;;;;5009942;28;20018;-60
2022/06/21 03:53:56;;;;;;;9.40;3.28;;;9.70;99.90;;;;;;5008279;28;20060;-60
2022/06/21 03:56:35;;;;;;;7.70;3.20;;;9.70;99.90;;;;;;4966321;28;20038;-60
2022/06/21 03:59:11;;;;;;;11.73;4.07;;;9.80;99.90;;;;;;4966779;28;20129;-60
2022/06/21 04:01:49;;;;;;;11.10;3.88;;;9.70;99.90;;;;;;4966038;28;20070;-60
2022/06/21 04:04:23;;;;;;;9.27;3.63;;;9.70;99.90;;;;;;4968920;28;20031;-60
2022/06/21 04:06:58;;;;;;;5.60;2.92;;;9.70;99.90;;;;;;4967392;28;20180;-60
2022/06/21 04:09:34;;;;;;;5.05;2.92;;;9.60;99.90;;;;;;4970816;28;20030;-59
2022/06/21 04:12:32;;;;;;;8.73;3.25;;;9.50;99.90;;;;;;4968136;28;20066;-60
2022/06/21 04:15:31;;;;;;;5.78;3.00;;;9.40;99.90;;;;;;4967917;28;20451;-64
2022/06/21 04:18:25;;;;;;;10.18;3.40;;;9.40;99.90;;;;;;4968157;28;20027;-62
2022/06/21 04:21:21;;;;;;;8.90;3.50;;;9.50;99.90;;;;;;4961579;28;20073;-61
2022/06/21 04:24:09;;;;;;;6.88;3.60;;;9.50;99.90;;;;;;4968492;28;20033;-60
2022/06/21 04:26:56;;;;;;;8.90;3.45;;;9.40;99.90;;;;;;4960079;28;20514;-61
2022/06/21 04:29:31;;;;;;;11.32;4.50;;;9.40;99.90;;;;;;4966493;28;20505;-61
2022/06/21 04:32:08;;;;;;;8.05;3.63;;;9.40;99.90;;;;;;4975302;28;20069;-60
2022/06/21 04:34:47;;;;;;;5.97;3.25;;;9.40;99.90;;;;;;4998624;28;20034;-61
2022/06/21 04:37:35;;;;;;;8.75;3.72;;;9.40;99.90;;;;;;5009257;28;20076;-61
2022/06/21 04:40:13;;;;;;;5.28;3.22;;;9.50;99.90;;;;;;5003521;28;20042;-61
2022/06/21 04:43:11;;;;;;;9.88;3.90;;;9.60;99.90;;;;;;5006655;28;20029;-60
2022/06/21 04:45:50;;;;;;;9.40;3.95;;;9.60;99.90;;;;;;5011785;28;21018;-60
2022/06/21 04:48:23;;;;;;;8.05;3.28;;;9.70;99.90;;;;;;5013120;28;20038;-61
2022/06/21 04:51:00;;;;;;;5.95;3.42;;;9.70;99.90;;;;;;5013257;28;20026;-61
2022/06/21 04:53:37;;;;;;;7.63;3.10;;;9.80;99.90;;;;;;5011503;28;20037;-61
2022/06/21 04:56:16;;;;;;;6.47;3.05;;;9.90;99.90;;;;;;5012431;28;20021;-61
2022/06/21 04:58:44;;;;;;;10.77;3.97;;;10.00;99.90;;;;;;5011224;28;20079;-61
2022/06/21 05:03:58;;;;;;;10.30;3.38;;;10.40;99.90;;;;;;5006984;28;20409;-62
2022/06/21 05:06:25;;;;;;;7.68;3.10;;;10.50;99.90;;;;;;5011096;28;20061;-62
2022/06/21 05:08:51;;;;;;;6.47;4.07;;;10.60;99.90;;;;;;5013022;28;20026;-61
2022/06/21 05:11:18;;;;;;;14.38;3.75;;;10.70;99.90;;;;;;5012028;28;20037;-60
2022/06/21 05:13:49;;;;;;;7.45;4.35;;;10.80;99.90;;;;;;5012746;28;20034;-59
2022/06/21 05:16:38;;;;;;;9.48;3.33;;;10.90;99.90;;;;;;5013616;28;20034;-61
2022/06/21 05:19:12;;;;;;;6.65;3.33;;;11.00;99.90;;;;;;5007249;28;20057;-61
2022/06/21 05:22:02;;;;;;;8.20;4.53;;;11.10;99.90;;;;;;5007057;28;20041;-61
2022/06/21 05:24:29;;;;;;;8.85;3.75;;;11.30;99.90;;;;;;5002398;28;20080;-60
2022/06/21 05:26:54;;;;;;;10.27;4.00;;;11.40;99.90;;;;;;5011426;28;20116;-62
2022/06/21 05:29:43;;;;;;;9.63;3.75;;;11.60;99.90;;;;;;5010563;28;20481;-61
2022/06/21 05:32:17;;;;;;;10.52;3.80;;;11.70;99.90;;;;;;4983081;28;20501;-62
2022/06/21 05:34:48;;;;;;;8.55;3.30;;;11.70;99.90;;;;;;5002663;28;20052;-61
2022/06/21 05:37:36;;;;;;;7.75;3.75;;;11.80;99.90;;;;;;5009188;28;20501;-61
2022/06/21 05:40:15;;;;;;;6.85;4.03;;;11.90;99.90;;;;;;5012240;28;20056;-61
2022/06/21 05:42:41;;;;;;;11.07;3.33;;;11.90;99.90;;;;;;5009956;28;20033;-61
2022/06/21 05:45:14;;;;;;;9.10;4.65;;;12.00;99.90;;;;;;5012126;28;20072;-60
2022/06/21 05:47:57;;;;;;;7.70;4.18;;;12.10;99.90;;;;;;5001995;28;20032;-61
2022/06/21 05:50:32;;;;;;;11.30;4.70;;;12.20;99.90;;;;;;5007311;28;20044;-61
2022/06/21 05:53:09;;;;;;;10.20;3.97;;;12.30;99.90;;;;;;5012137;28;20041;-61
2022/06/21 05:55:38;;;;;;;10.73;4.18;;;12.30;99.90;;;;;;5004282;28;20479;-59
2022/06/21 05:58:06;;;;;;;11.38;4.70;;;12.40;99.90;;;;;;5025009;28;20548;-60
2022/06/21 06:00:41;;;;;;;13.15;4.60;;;12.40;99.90;;;;;;5009012;28;20057;-62
2022/06/21 06:03:16;;;;;;;10.07;4.22;;;12.50;99.90;;;;;;5011899;28;20433;-60
2022/06/21 06:05:43;;;;;;;9.88;4.22;;;12.30;99.90;;;;;;5016512;28;20044;-61
2022/06/21 06:08:18;;;;;;;10.63;3.90;;;12.10;99.90;;;;;;5007820;28;20041;-61
2022/06/21 06:10:46;;;;;;;11.40;3.92;;;12.00;99.90;;;;;;5010720;28;20029;-61
2022/06/21 06:13:18;;;;;;;10.38;4.30;;;11.90;99.90;;;;;;5010664;28;20042;-61
2022/06/21 06:15:58;;;;;;;9.38;3.70;;;12.00;99.90;;;;;;5011816;28;20064;-61
2022/06/21 06:18:45;;;;;;;6.72;3.78;;;12.10;99.90;;;;;;5006790;28;20037;-60
2022/06/21 06:21:20;;;;;;;8.50;3.75;;;12.20;99.90;;;;;;5003849;28;20393;-61
2022/06/21 06:23:55;;;;;;;10.95;4.03;;;12.30;99.90;;;;;;5010780;28;20425;-61
2022/06/21 06:26:37;;;;;;;12.02;4.05;;;12.40;99.90;;;;;;5000821;28;20092;-61
2022/06/21 06:29:16;;;;;;;11.32;3.92;;;12.50;99.90;;;;;;5005798;28;20050;-61
2022/06/21 06:31:54;;;;;;;10.55;3.92;;;12.40;99.90;;;;;;5019128;28;20037;-61
2022/06/21 06:34:28;;;;;;;18.58;5.13;;;12.50;99.90;;;;;;4997939;28;20037;-61
2022/06/21 06:37:00;;;;;;;13.07;4.65;;;12.70;99.90;;;;;;5010643;28;20056;-61
2022/06/21 06:39:33;;;;;;;;;;;12.60;99.90;;;;;;4999259;28;20467;-61
2022/06/21 06:42:18;;;;;;;9.93;4.03;;;12.70;99.90;;;;;;4998155;28;19917;-62
2022/06/21 06:45:03;;;;;;;13.55;4.35;;;12.80;99.90;;;;;;5002746;28;20450;-60
2022/06/21 06:47:38;;;;;;;12.27;5.07;;;13.00;99.90;;;;;;5007522;28;20053;-61
2022/06/21 06:50:23;;;;;;;17.08;4.72;;;13.10;99.90;;;;;;5010820;28;20030;-61
2022/06/21 06:53:08;;;;;;;14.60;5.55;;;13.10;99.90;;;;;;5003164;28;20052;-61
2022/06/21 06:55:46;;;;;;;13.35;4.93;;;13.20;99.90;;;;;;5003662;28;20424;-61
2022/06/21 06:58:25;;;;;;;11.25;4.38;;;13.20;99.90;;;;;;5007804;28;20030;-60
2022/06/21 07:01:15;;;;;;;10.98;4.35;;;13.30;99.90;;;;;;5009294;28;20037;-61
2022/06/21 07:03:58;;;;;;;15.02;5.10;;;13.30;99.90;;;;;;5008265;28;20163;-60
2022/06/21 07:06:39;;;;;;;13.38;4.95;;;13.50;99.90;;;;;;5004897;28;20470;-61
2022/06/21 07:09:24;;;;;;;8.57;4.57;;;13.40;99.90;;;;;;5010247;28;20057;-61
2022/06/21 07:12:03;;;;;;;11.82;5.13;;;13.50;99.90;;;;;;5008970;28;20045;-61
2022/06/21 07:14:30;;;;;;;10.57;4.80;;;13.60;99.90;;;;;;5008207;28;20026;-62
2022/06/21 07:17:19;;;;;;;17.88;4.88;;;13.70;99.90;;;;;;5009778;28;20073;-62
2022/06/21 07:19:45;;;;;;;15.35;5.40;;;13.70;99.90;;;;;;4979844;28;20108;-62
2022/06/21 07:22:34;;;;;;;12.93;4.80;;;13.90;99.90;;;;;;5009797;28;20473;-61
2022/06/21 07:25:28;;;;;;;12.55;4.40;;;14.00;99.90;;;;;;5008803;28;20059;-61
2022/06/21 07:27:58;;;;;;;9.98;4.55;;;14.10;99.90;;;;;;5001216;28;20100;-61
2022/06/21 07:30:33;;;;;;;14.10;4.72;;;14.30;99.90;;;;;;5007853;28;20120;-61
2022/06/21 07:33:08;;;;;;;8.95;4.38;;;14.40;99.90;;;;;;5009819;28;20049;-61
2022/06/21 07:35:41;;;;;;;9.50;4.57;;;14.60;99.90;;;;;;5007599;28;20057;-61
2022/06/21 07:38:17;;;;;;;10.27;5.05;;;14.80;99.90;;;;;;5009682;28;20037;-63
2022/06/21 07:40:49;;;;;;;10.63;4.20;;;14.90;99.90;;;;;;5022217;28;20026;-61
2022/06/21 07:43:41;;;;;;;10.38;4.93;;;15.10;99.90;;;;;;5001841;28;20038;-62
2022/06/21 07:46:09;;;;;;;14.82;4.68;;;15.30;99.90;;;;;;5003770;28;20120;-61
2022/06/21 07:48:46;;;;;;;19.40;5.43;;;15.40;99.90;;;;;;5007388;28;20034;-61
2022/06/21 07:51:24;;;;;;;13.40;5.10;;;15.50;99.90;;;;;;5002740;28;20436;-62
2022/06/21 07:53:54;;;;;;;12.75;5.00;;;15.60;99.90;;;;;;5009541;28;20066;-61
2022/06/21 07:56:33;;;;;;;13.18;4.40;;;15.70;99.90;;;;;;5006800;28;20083;-62
2022/06/21 07:59:09;;;;;;;14.20;4.28;;;15.60;99.90;;;;;;5008514;28;20034;-61
2022/06/21 08:07:35;;;;;;;9.25;3.92;;;15.90;99.90;;;;;;5007925;28;20596;-61
2022/06/21 08:10:14;;;;;;;11.55;4.82;;;16.00;99.90;;;;;;5009635;28;20083;-61
2022/06/21 08:12:39;;;;;;;16.60;4.50;;;16.20;99.90;;;;;;5007352;28;20164;-60
2022/06/21 08:15:06;;;;;;;8.65;4.43;;;16.50;99.90;;;;;;5010136;28;20494;-60
2022/06/21 08:17:31;;;;;;;12.02;4.35;;;16.70;99.90;;;;;;5011917;28;20045;-61
2022/06/21 08:20:06;;;;;;;13.18;3.30;;;17.00;99.90;;;;;;5002992;28;20026;-60
2022/06/21 08:22:48;;;;;;;6.95;3.65;;;17.30;99.90;;;;;;5008082;28;20076;-61
2022/06/21 08:25:13;;;;;;;8.70;2.83;;;17.50;99.90;;;;;;5002010;28;20026;-61
2022/06/21 08:27:43;;;;;;;16.05;5.47;;;17.40;99.90;;;;;;5002135;28;20061;-59
2022/06/21 08:30:21;;;;;;;7.50;3.88;;;17.50;99.90;;;;;;5003981;28;20073;-59
2022/06/21 08:33:11;;;;;;;12.75;3.10;;;17.80;99.90;;;;;;5005171;28;20035;-60
2022/06/21 08:35:40;;;;;;;14.15;3.65;;;18.00;99.90;;;;;;5003013;28;20029;-61
2022/06/21 08:38:20;;;;;;;9.13;3.15;;;18.20;99.90;;;;;;5006051;28;20493;-60
2022/06/21 08:44:50;;;;;;;5.93;2.03;;;18.50;99.90;;;;;;5007278;28;20111;-60
2022/06/21 08:47:22;;;;;;;9.43;1.98;;;18.60;99.90;;;;;;5001836;28;20080;-61
2022/06/21 08:49:48;;;;;;;10.68;2.00;;;18.60;99.90;;;;;;4996756;28;20056;-61
2022/06/21 08:52:42;;;;;;;3.67;1.90;;;18.80;99.90;;;;;;5006830;28;20053;-60
2022/06/21 08:55:11;;;;;;;6.95;1.52;;;18.80;99.90;;;;;;5002817;28;20026;-60
2022/06/21 08:57:52;;;;;;;4.45;1.80;;;18.90;99.90;;;;;;5003782;28;20057;-60
2022/06/21 09:01:02;;;;;;;5.15;1.60;;;19.00;99.90;;;;;;5008319;28;20115;-62
2022/06/21 09:03:43;;;;;;;6.70;1.77;;;19.20;99.90;;;;;;4983133;28;20026;-61
2022/06/21 09:06:11;;;;;;;5.55;1.63;;;19.30;99.90;;;;;;4988975;28;20038;-60
2022/06/21 09:08:59;;;;;;;7.05;1.60;;;19.30;99.90;;;;;;4986450;28;20076;-59
2022/06/21 09:11:49;;;;;;;10.25;1.80;;;19.40;99.90;;;;;;4980182;28;20051;-61
2022/06/21 09:14:39;;;;;;;6.47;2.17;;;19.40;99.90;;;;;;4986489;28;20092;-59
2022/06/21 09:17:11;;;;;;;10.48;2.53;;;19.30;99.90;;;;;;4998566;28;20691;-61
2022/06/21 09:20:00;;;;;;;6.68;2.17;;;19.30;99.90;;;;;;4986113;28;20544;-63
2022/06/21 09:22:37;;;;;;;9.70;2.08;;;19.50;99.90;;;;;;4979684;28;20114;-60
2022/06/21 09:25:15;;;;;;;6.68;1.55;;;19.60;99.90;;;;;;4990341;28;20148;-61
2022/06/21 09:27:48;;;;;;;5.93;1.70;;;19.70;99.90;;;;;;4990056;28;20076;-60
2022/06/21 09:30:23;;;;;;;5.15;1.52;;;19.80;99.90;;;;;;4987651;28;20034;-60
2022/06/21 09:33:10;;;;;;;7.60;2.60;;;19.80;99.90;;;;;;4972584;28;20042;-60
2022/06/21 09:35:37;;;;;;;7.10;3.45;;;19.70;99.90;;;;;;4987849;28;20030;-60
2022/06/21 09:38:11;;;;;;;9.35;2.53;;;19.60;99.90;;;;;;5001496;28;20402;-60
2022/06/21 09:40:53;;;;;;;9.20;3.42;;;19.60;99.90;;;;;;5000905;28;20030;-59
2022/06/21 09:43:37;;;;;;;6.05;1.73;;;19.70;99.90;;;;;;5004689;28;20030;-60
2022/06/21 09:46:41;;;;;;;7.40;1.40;;;20.00;99.90;;;;;;4998605;28;20026;-60
2022/06/21 09:49:16;;;;;;;10.82;2.35;;;20.30;99.90;;;;;;4944075;28;20047;-61
2022/06/21 09:51:58;;;;;;;8.38;1.92;;;20.30;99.90;;;;;;4944595;29;20048;-60
2022/06/21 09:54:31;;;;;;;7.07;2.15;;;20.50;99.90;;;;;;4945966;28;20031;-61
2022/06/21 09:57:18;;;;;;;4.22;2.22;;;20.80;99.90;;;;;;4945634;29;20157;-60
2022/06/21 09:59:55;;;;;;;5.50;1.90;;;20.90;99.90;;;;;;4943816;29;20135;-61
2022/06/21 10:02:28;;;;;;;6.35;1.75;;;21.00;99.90;;;;;;4944146;29;20614;-61
2022/06/21 10:05:04;;;;;;;5.47;1.50;;;20.90;99.90;;;;;;4945477;28;20046;-62
2022/06/21 10:07:40;;;;;;;9.73;1.55;;;20.90;99.90;;;;;;4944233;28;20101;-61
2022/06/21 10:10:24;;;;;;;31.63;2.92;;;20.90;99.90;;;;;;4946204;28;20443;-61
2022/06/21 10:13:04;;;;;;;52.83;3.13;;;20.90;99.90;;;;;;4946676;29;20102;-61
2022/06/21 10:15:50;;;;;;;3.60;1.30;;;21.20;99.90;;;;;;4940228;29;20520;-61
2022/06/21 10:18:34;;;;;;;3.80;1.60;;;21.20;99.90;;;;;;4945529;28;20447;-60
2022/06/21 10:20:59;;;;;;;5.70;1.50;;;21.40;99.90;;;;;;4926147;29;20027;-61
2022/06/21 10:24:07;;;;;;;6.05;1.38;;;21.50;99.90;;;;;;4942722;28;20030;-62
2022/06/21 10:26:48;;;;;;;4.78;1.92;;;21.60;99.90;;;;;;4996796;28;20038;-62
2022/06/21 10:29:35;;;;;;;6.45;2.03;;;21.40;99.90;;;;;;5004893;28;20402;-62
2022/06/21 10:32:17;;;;;;;8.40;2.58;;;21.30;99.90;;;;;;4998277;28;21142;-62
2022/06/21 10:34:49;;;;;;;9.18;2.17;;;21.50;99.90;;;;;;4996194;28;20023;-61
2022/06/21 10:37:39;;;;;;;13.07;1.95;;;21.70;99.40;;;;;;5005024;28;20114;-61
2022/06/21 10:40:33;;;;;;;6.70;1.20;;;21.70;99.70;;;;;;5001049;28;20040;-62
2022/06/21 10:43:36;;;;;;;19.92;2.22;;;21.80;98.40;;;;;;5005439;28;20179;-60
2022/06/21 10:46:09;;;;;;;5.03;1.75;;;21.80;98.90;;;;;;5005103;28;20379;-61
2022/06/21 10:48:54;;;;;;;10.40;1.60;;;22.10;98.40;;;;;;5003629;28;20034;-60
2022/06/21 10:51:30;;;;;;;2.85;1.38;;;22.10;97.50;;;;;;4999148;28;20065;-62
2022/06/21 10:54:13;;;;;;;4.63;1.42;;;21.70;97.40;;;;;;5006086;28;20116;-61
2022/06/21 11:03:19;;;;;;;5.60;1.40;;;22.00;96.40;;;;;;5007642;28;20037;-61
2022/06/21 11:06:40;;;;;;;4.65;1.33;;;22.40;95.80;;;;;;5007998;28;20033;-61
2022/06/21 11:09:24;;;;;;;7.45;1.80;;;22.40;95.20;;;;;;4973834;28;20033;-61
2022/06/21 11:15:24;;;;;;;6.13;1.55;;;22.50;96.30;;;;;;5007011;28;20501;-61
2022/06/21 11:18:04;;;;;;;4.05;1.73;;;22.60;95.90;;;;;;5003157;28;20071;-60
2022/06/21 11:20:58;;;;;;;6.10;1.80;;;22.60;95.90;;;;;;5008721;28;20463;-61
2022/06/21 11:23:44;;;;;;;7.80;1.85;;;22.70;95.90;;;;;;5006733;28;20125;-62
2022/06/21 11:26:36;;;;;;;8.05;1.70;;;22.90;95.20;;;;;;5009722;28;20028;-61
2022/06/21 11:29:21;;;;;;;6.35;2.40;;;22.90;94.50;;;;;;5004367;28;20064;-60
2022/06/21 11:32:03;;;;;;;6.63;2.47;;;23.00;94.00;;;;;;5005602;28;20034;-60
2022/06/21 11:35:02;;;;;;;25.25;2.88;;;23.10;94.60;;;;;;5008213;28;20061;-61
2022/06/21 11:37:48;;;;;;;3.97;1.42;;;23.20;93.80;;;;;;4998310;28;20034;-60
2022/06/21 11:40:38;;;;;;;31.95;2.13;;;23.20;92.40;;;;;;5009920;28;20456;-61
2022/06/21 11:43:18;;;;;;;7.80;1.60;;;23.30;92.70;;;;;;4999792;28;20052;-61
2022/06/21 11:45:58;;;;;;;7.70;1.33;;;23.50;91.40;;;;;;5007087;28;20037;-61
2022/06/21 11:48:48;;;;;;;12.02;2.05;;;23.40;90.10;;;;;;5000656;28;20481;-62
2022/06/21 11:51:48;;;;;;;6.25;1.65;;;23.30;90.10;;;;;;5005876;28;20117;-61
2022/06/21 11:54:19;;;;;;;3.72;1.17;;;23.20;88.80;;;;;;5008077;28;20489;-61
2022/06/21 11:57:17;;;;;;;3.07;1.37;;;23.40;89.20;;;;;;5009329;28;20429;-60
2022/06/21 11:59:42;;;;;;;10.88;1.95;;;23.70;84.60;;;;;;5005356;28;20025;-61
2022/06/21 12:02:36;;;;;;;7.68;1.55;;;23.60;86.00;;;;;;5009808;28;20436;-61
2022/06/21 12:05:30;;;;;;;6.60;1.30;;;23.90;86.70;;;;;;5008805;28;20128;-61
2022/06/21 12:08:15;;;;;;;5.80;1.70;;;23.70;84.60;;;;;;5004766;28;20500;-61
2022/06/21 12:10:48;;;;;;;3.10;1.20;;;23.40;86.70;;;;;;4999459;28;20446;-60
2022/06/21 12:13:13;;;;;;;7.10;1.48;;;23.50;88.30;;;;;;5005665;28;20527;-63
2022/06/21 12:15:45;;;;;;;4.15;1.30;;;23.60;86.90;;;;;;5008052;28;20116;-61
2022/06/21 12:18:20;;;;;;;5.90;2.13;;;23.60;87.70;;;;;;5009884;28;20548;-61
2022/06/21 12:21:07;;;;;;;2.63;1.17;;;23.60;86.90;;;;;;4998579;28;20415;-61
2022/06/21 12:23:41;;;;;;;3.85;1.63;;;23.80;86.90;;;;;;5008040;28;20030;-61
2022/06/21 12:26:13;;;;;;;4.18;1.20;;;23.70;85.50;;;;;;5008771;28;20033;-61
2022/06/21 12:28:39;;;;;;;;;;;23.80;85.80;;;;;;5008085;28;20089;-60
2022/06/21 12:31:29;;;;;;;4.38;1.58;;;24.10;85.80;;;;;;5009346;28;20276;-60
2022/06/21 12:34:05;;;;;;;3.47;1.20;;;24.60;82.00;;;;;;5009559;28;20030;-61
2022/06/21 12:36:43;;;;;;;4.90;1.25;;;24.70;79.00;;;;;;5007579;28;20092;-61
2022/06/21 12:39:38;;;;;;;7.63;1.38;;;24.80;76.40;;;;;;5004558;28;20026;-61
2022/06/21 12:42:33;;;;;;;4.88;1.10;;;24.70;76.30;;;;;;4974311;28;20038;-61
2022/06/21 12:45:33;;;;;;;9.38;1.50;;;24.80;79.90;;;;;;5008907;28;20038;-61
2022/06/21 12:48:04;;;;;;;4.20;1.30;;;25.00;77.20;;;;;;5000529;28;20030;-61
2022/06/21 12:50:53;;;;;;;4.88;1.25;;;25.50;74.00;;;;;;4998790;28;20050;-61
2022/06/21 12:53:47;;;;;;;6.32;1.63;;;25.70;73.30;;;;;;4997071;28;20097;-61
2022/06/21 12:56:31;;;;;;;2.65;1.00;;;25.50;74.80;;;;;;4999606;28;20026;-60
2022/06/21 12:59:04;;;;;;;7.35;1.55;;;25.60;71.00;;;;;;4994950;28;20034;-60
2022/06/21 13:01:47;;;;;;;9.75;1.25;;;25.60;72.30;;;;;;5003523;28;20038;-59
2022/06/21 13:04:32;;;;;;;3.45;1.40;;;25.50;72.80;;;;;;5005311;28;20022;-62
2022/06/21 13:07:15;;;;;;;7.53;1.48;;;25.40;70.40;;;;;;5000345;28;20117;-60
2022/06/21 13:10:07;;;;;;;5.32;1.20;;;25.50;71.40;;;;;;4997180;28;20053;-59
2022/06/21 13:12:55;;;;;;;4.43;1.50;;;25.70;69.60;;;;;;4997176;28;20038;-60
2022/06/21 13:15:44;;;;;;;3.33;1.20;;;25.90;71.20;;;;;;5003252;28;20471;-60
2022/06/21 13:18:21;;;;;;;3.42;1.23;;;26.20;71.50;;;;;;5008913;28;20033;-61
2022/06/21 13:20:50;;;;;;;4.78;2.00;;;26.20;68.40;;;;;;4999123;28;20497;-61
2022/06/21 13:23:36;;;;;;;7.25;1.52;;;26.20;68.00;;;;;;5009143;28;20032;-60
2022/06/21 13:26:20;;;;;;;5.50;1.30;;;26.10;67.00;;;;;;5007141;28;20111;-60
2022/06/21 13:28:54;;;;;;;3.83;1.95;;;26.00;69.30;;;;;;4999068;28;20030;-60
2022/06/21 13:31:45;;;;;;;18.10;2.05;;;25.90;69.80;;;;;;5003705;28;20034;-60
2022/06/21 13:34:41;;;;;;;4.93;1.70;;;26.20;68.00;;;;;;5007903;28;20069;-62
2022/06/21 13:37:21;;;;;;;6.82;1.60;;;26.20;67.80;;;;;;4998914;28;20124;-62
2022/06/21 13:40:05;;;;;;;15.18;1.90;;;26.00;67.40;;;;;;5002805;28;20065;-60
2022/06/21 13:42:53;;;;;;;5.85;1.17;;;26.10;68.30;;;;;;4995339;28;20084;-61
2022/06/21 13:46:10;;;;;;;7.25;1.70;;;26.10;66.10;;;;;;5006396;28;20084;-61
2022/06/21 13:48:41;;;;;;;4.10;1.30;;;26.40;66.70;;;;;;4979072;28;20125;-61
2022/06/21 13:51:17;;;;;;;2.97;1.10;;;26.40;66.60;;;;;;4970320;28;20106;-62
2022/06/21 13:53:53;;;;;;;3.80;1.48;;;26.70;66.70;;;;;;4978520;28;20762;-60
2022/06/21 13:56:30;;;;;;;5.40;1.55;;;27.30;64.80;;;;;;4968434;28;20773;-60
2022/06/21 13:59:15;;;;;;;4.65;1.50;;;27.50;62.20;;;;;;4979637;28;20038;-61
2022/06/21 14:02:13;;;;;;;7.28;1.70;;;26.90;64.40;;;;;;4974577;28;20059;-62
2022/06/21 14:04:48;;;;;;;5.60;1.38;;;26.90;64.10;;;;;;4973871;28;20594;-62